Time;durP1;ratioP1;P1;durP2;ratioP2;P2;SDS_P1;SDS_P2;PMS_P1;PMS_P2;Temp;Humidity;BMP_temperature;BMP_pressure;BME280_temperature;BME280_humidity;BME280_pressure;Samples;Min_cycle;Max_cycle;Signal;HPM_P1;HPM_P2
2022/04/07 00:01:08;;;;;;;;;1.00;0.00;;;;;;;;5072723;28;45356;-60
2022/04/07 00:03:33;;;;;;;;;1.00;1.00;;;;;;;;5076741;27;46289;-60
2022/04/07 00:05:58;;;;;;;;;2.00;1.00;;;;;;;;5072126;27;45435;-59
2022/04/07 00:08:24;;;;;;;;;0.00;0.00;;;;;;;;5073649;28;45553;-60
2022/04/07 00:10:50;;;;;;;;;0.00;0.00;;;;;;;;5074557;27;45442;-60
2022/04/07 00:13:15;;;;;;;;;1.00;1.00;;;;;;;;5072597;27;45903;-59
2022/04/07 00:15:40;;;;;;;;;0.25;0.25;;;;;;;;5075660;27;45803;-60
2022/04/07 00:18:06;;;;;;;;;0.50;0.50;;;;;;;;5075167;27;45418;-60
2022/04/07 00:20:32;;;;;;;;;1.00;1.00;;;;;;;;5073012;27;45514;-60
2022/04/07 00:22:57;;;;;;;;;1.75;1.00;;;;;;;;5070681;27;47637;-59
2022/04/07 00:25:23;;;;;;;;;1.00;1.00;;;;;;;;5071791;28;45471;-60
2022/04/07 00:27:48;;;;;;;;;1.25;1.00;;;;;;;;5074340;27;45781;-59
2022/04/07 00:30:15;;;;;;;;;1.00;1.00;;;;;;;;5076024;28;45527;-59
2022/04/07 00:32:41;;;;;;;;;2.25;1.00;;;;;;;;5071750;27;48379;-59
2022/04/07 00:35:08;;;;;;;;;1.00;1.00;;;;;;;;5072695;27;45671;-60
2022/04/07 00:37:34;;;;;;;;;1.50;1.00;;;;;;;;5072658;27;45380;-60
2022/04/07 00:39:59;;;;;;;;;1.25;0.00;;;;;;;;5072849;27;45362;-59
2022/04/07 00:42:24;;;;;;;;;0.25;0.25;;;;;;;;5074697;27;48011;-59
2022/04/07 00:44:49;;;;;;;;;0.00;0.00;;;;;;;;5073137;27;46736;-60
2022/04/07 00:47:15;;;;;;;;;1.50;1.00;;;;;;;;5073200;27;45394;-60
2022/04/07 00:49:40;;;;;;;;;2.00;2.00;;;;;;;;5073814;28;45469;-60
2022/04/07 00:52:06;;;;;;;;;1.00;1.00;;;;;;;;5072598;27;45375;-60
2022/04/07 00:54:32;;;;;;;;;1.00;1.00;;;;;;;;5073569;28;45606;-60
2022/04/07 00:56:59;;;;;;;;;1.25;1.00;;;;;;;;5072108;27;45510;-59
2022/04/07 00:59:24;;;;;;;;;1.00;1.00;;;;;;;;5074116;27;45376;-60
2022/04/07 01:01:50;;;;;;;;;1.75;1.75;;;;;;;;5073070;28;48614;-59
2022/04/07 01:04:16;;;;;;;;;1.00;1.00;;;;;;;;5073551;27;45439;-60
2022/04/07 01:06:42;;;;;;;;;1.50;1.50;;;;;;;;5074692;28;45458;-59
2022/04/07 01:09:08;;;;;;;;;1.00;1.00;;;;;;;;5073968;27;45487;-60
2022/04/07 01:11:34;;;;;;;;;0.00;0.00;;;;;;;;5071547;27;46849;-60
2022/04/07 01:13:59;;;;;;;;;1.50;1.00;;;;;;;;5073045;28;45446;-60
2022/04/07 01:16:27;;;;;;;;;2.25;1.00;;;;;;;;5072171;27;45435;-59
2022/04/07 01:18:52;;;;;;;;;2.25;2.25;;;;;;;;5073370;27;45336;-60
2022/04/07 01:21:18;;;;;;;;;0.00;0.00;;;;;;;;5073785;27;47604;-60
2022/04/07 01:23:55;;;;;;;;;4.50;2.00;;;;;;;;5073050;27;45483;-60
2022/04/07 01:26:20;;;;;;;;;2.00;1.00;;;;;;;;5073109;27;45593;-60
2022/04/07 01:28:46;;;;;;;;;3.00;1.25;;;;;;;;5071288;27;45518;-60
2022/04/07 01:31:12;;;;;;;;;2.50;2.00;;;;;;;;5055824;28;46407;-60
2022/04/07 01:33:37;;;;;;;;;1.00;1.00;;;;;;;;5072893;27;45571;-60
2022/04/07 01:36:02;;;;;;;;;2.00;2.00;;;;;;;;5072136;28;45676;-60
2022/04/07 01:38:27;;;;;;;;;0.25;0.00;;;;;;;;5073131;27;45318;-60
2022/04/07 01:40:52;;;;;;;;;1.75;1.50;;;;;;;;5071785;27;46408;-60
2022/04/07 01:43:18;;;;;;;;;1.25;1.00;;;;;;;;5072217;27;45548;-59
2022/04/07 01:45:43;;;;;;;;;1.00;1.00;;;;;;;;5074070;27;45337;-60
2022/04/07 01:48:09;;;;;;;;;3.75;1.00;;;;;;;;5073675;27;45537;-60
2022/04/07 01:50:37;;;;;;;;;2.50;1.00;;;;;;;;5072301;28;45832;-60
2022/04/07 01:53:04;;;;;;;;;3.00;1.00;;;;;;;;5070659;28;46236;-59
2022/04/07 01:55:29;;;;;;;;;2.50;1.50;;;;;;;;5070076;27;45346;-59
2022/04/07 01:57:55;;;;;;;;;0.25;0.00;;;;;;;;5072616;27;45427;-59
2022/04/07 02:00:21;;;;;;;;;3.00;1.00;;;;;;;;5073121;28;47148;-60
2022/04/07 02:02:46;;;;;;;;;1.00;0.25;;;;;;;;5072533;27;45415;-59
2022/04/07 02:05:12;;;;;;;;;1.50;1.00;;;;;;;;5072522;27;45405;-59
2022/04/07 02:07:40;;;;;;;;;1.00;1.00;;;;;;;;5072953;27;45422;-60
2022/04/07 02:10:10;;;;;;;;;1.00;1.00;;;;;;;;5055329;28;46487;-59
2022/04/07 02:12:37;;;;;;;;;1.75;1.00;;;;;;;;5069321;27;46524;-59
2022/04/07 02:15:03;;;;;;;;;1.25;0.75;;;;;;;;5071238;28;45696;-59
2022/04/07 02:17:28;;;;;;;;;2.00;0.00;;;;;;;;5071908;28;45530;-60
2022/04/07 02:19:54;;;;;;;;;1.00;1.00;;;;;;;;5072057;28;45424;-59
2022/04/07 02:22:20;;;;;;;;;0.50;0.50;;;;;;;;5072615;27;45514;-59
2022/04/07 02:24:45;;;;;;;;;1.25;1.25;;;;;;;;5073456;27;45831;-60
2022/04/07 02:27:11;;;;;;;;;1.00;1.00;;;;;;;;5073200;28;45468;-59
2022/04/07 02:29:36;;;;;;;;;3.00;2.00;;;;;;;;5071868;27;46280;-60
2022/04/07 02:32:02;;;;;;;;;2.00;0.75;;;;;;;;5070725;27;45542;-60
2022/04/07 02:34:27;;;;;;;;;1.00;1.00;;;;;;;;5070919;27;45341;-59
2022/04/07 02:36:52;;;;;;;;;3.50;0.50;;;;;;;;5071199;28;45583;-60
2022/04/07 02:39:18;;;;;;;;;1.00;1.00;;;;;;;;5074165;27;45865;-59
2022/04/07 02:41:43;;;;;;;;;1.00;1.00;;;;;;;;5071982;27;45482;-59
2022/04/07 02:44:08;;;;;;;;;2.00;2.00;;;;;;;;5071674;27;45392;-59
2022/04/07 02:46:33;;;;;;;;;0.50;0.50;;;;;;;;5072165;28;45410;-60
2022/04/07 02:48:59;;;;;;;;;0.00;0.00;;;;;;;;5071800;27;46283;-59
2022/04/07 02:51:24;;;;;;;;;1.00;1.00;;;;;;;;5072638;28;45446;-60
2022/04/07 02:53:51;;;;;;;;;0.50;0.50;;;;;;;;5071787;27;45534;-59
2022/04/07 02:56:16;;;;;;;;;1.75;1.00;;;;;;;;5072027;27;45407;-59
2022/04/07 02:58:41;;;;;;;;;1.75;1.00;;;;;;;;5071272;27;45345;-60
2022/04/07 03:01:09;;;;;;;;;1.75;1.25;;;;;;;;5069975;28;46139;-59
2022/04/07 03:03:34;;;;;;;;;0.50;0.25;;;;;;;;5070223;28;45448;-59
2022/04/07 03:05:59;;;;;;;;;1.00;1.00;;;;;;;;5071949;27;45679;-59
2022/04/07 03:08:24;;;;;;;;;2.50;2.00;;;;;;;;5069822;28;48574;-59
2022/04/07 03:10:49;;;;;;;;;2.50;1.00;;;;;;;;5072043;27;45609;-58
2022/04/07 03:13:14;;;;;;;;;4.50;1.25;;;;;;;;5069981;27;45577;-59
2022/04/07 03:15:40;;;;;;;;;1.00;1.00;;;;;;;;5073455;27;45510;-59
2022/04/07 03:18:05;;;;;;;;;1.00;1.00;;;;;;;;5069158;28;47454;-59
2022/04/07 03:20:30;;;;;;;;;2.00;2.00;;;;;;;;5070656;28;45475;-59
2022/04/07 03:22:55;;;;;;;;;2.00;1.00;;;;;;;;5071591;27;47814;-60
2022/04/07 03:25:21;;;;;;;;;1.00;1.00;;;;;;;;5070212;27;45592;-59
2022/04/07 03:27:46;;;;;;;;;1.75;1.25;;;;;;;;5072354;27;45622;-59
2022/04/07 03:30:11;;;;;;;;;1.75;0.25;;;;;;;;5073485;28;45397;-59
2022/04/07 03:32:36;;;;;;;;;0.25;0.00;;;;;;;;5071993;27;45688;-59
2022/04/07 03:35:02;;;;;;;;;1.00;1.00;;;;;;;;5071535;27;45533;-59
2022/04/07 03:37:27;;;;;;;;;0.75;0.00;;;;;;;;5073618;28;47280;-59
2022/04/07 03:39:52;;;;;;;;;0.00;0.00;;;;;;;;5072543;27;45405;-58
2022/04/07 03:42:18;;;;;;;;;0.25;0.25;;;;;;;;5074465;28;45799;-59
2022/04/07 03:44:43;;;;;;;;;2.00;2.00;;;;;;;;5074752;27;45543;-58
2022/04/07 03:47:08;;;;;;;;;0.75;0.75;;;;;;;;5073208;27;47318;-59
2022/04/07 03:49:33;;;;;;;;;1.00;1.00;;;;;;;;5074574;27;46106;-59
2022/04/07 03:51:58;;;;;;;;;2.00;0.75;;;;;;;;5072778;27;45700;-61
2022/04/07 03:54:24;;;;;;;;;1.25;1.25;;;;;;;;5075557;28;45415;-59
2022/04/07 03:56:49;;;;;;;;;1.00;1.00;;;;;;;;5073864;28;46531;-58
2022/04/07 03:59:14;;;;;;;;;2.75;1.00;;;;;;;;5073301;27;45419;-59
2022/04/07 04:01:40;;;;;;;;;1.00;1.00;;;;;;;;5073554;27;45357;-59
2022/04/07 04:04:06;;;;;;;;;3.50;1.25;;;;;;;;5073259;27;45513;-60
2022/04/07 04:06:32;;;;;;;;;1.00;1.00;;;;;;;;5075296;27;45950;-59
2022/04/07 04:08:57;;;;;;;;;1.25;0.00;;;;;;;;5072840;27;45411;-59
2022/04/07 04:11:22;;;;;;;;;1.50;1.00;;;;;;;;5074224;27;45498;-59
2022/04/07 04:13:48;;;;;;;;;0.00;0.00;;;;;;;;5072209;27;45395;-58
2022/04/07 04:16:15;;;;;;;;;2.25;1.75;;;;;;;;5073798;27;46795;-59
2022/04/07 04:18:40;;;;;;;;;1.75;1.75;;;;;;;;5074391;27;45499;-60
2022/04/07 04:21:06;;;;;;;;;2.00;1.00;;;;;;;;5072335;28;45512;-59
2022/04/07 04:23:32;;;;;;;;;1.00;1.00;;;;;;;;5073044;28;45730;-59
2022/04/07 04:25:58;;;;;;;;;2.00;2.00;;;;;;;;5072718;28;46650;-60
2022/04/07 04:28:23;;;;;;;;;2.75;1.50;;;;;;;;5073454;27;45511;-60
2022/04/07 04:30:48;;;;;;;;;5.50;2.50;;;;;;;;5074487;27;45316;-60
2022/04/07 04:33:13;;;;;;;;;1.25;1.25;;;;;;;;5073981;27;45564;-59
2022/04/07 04:35:38;;;;;;;;;1.00;0.00;;;;;;;;5073611;27;45781;-59
2022/04/07 04:38:04;;;;;;;;;1.00;1.00;;;;;;;;5073809;27;45460;-59
2022/04/07 04:40:29;;;;;;;;;3.75;1.00;;;;;;;;5073331;27;45526;-59
2022/04/07 04:42:54;;;;;;;;;2.00;1.00;;;;;;;;5073020;27;45465;-59
2022/04/07 04:45:19;;;;;;;;;3.00;2.00;;;;;;;;5074660;27;45612;-62
2022/04/07 04:47:45;;;;;;;;;2.00;1.00;;;;;;;;5072162;27;45558;-60
2022/04/07 04:50:13;;;;;;;;;0.25;0.25;;;;;;;;5067375;27;45516;-60
2022/04/07 04:52:38;;;;;;;;;0.75;0.75;;;;;;;;5072576;27;45708;-60
2022/04/07 04:55:03;;;;;;;;;1.50;1.50;;;;;;;;5069922;28;47538;-60
2022/04/07 04:57:29;;;;;;;;;2.25;1.00;;;;;;;;5075777;27;45310;-59
2022/04/07 04:59:54;;;;;;;;;2.00;2.00;;;;;;;;5073832;27;45613;-59
2022/04/07 05:02:19;;;;;;;;;1.25;1.25;;;;;;;;5072391;28;45434;-59
2022/04/07 05:04:45;;;;;;;;;2.00;2.00;;;;;;;;5072096;27;47688;-59
2022/04/07 05:07:10;;;;;;;;;1.00;1.00;;;;;;;;5073675;27;45491;-60
2022/04/07 05:09:37;;;;;;;;;2.00;1.25;;;;;;;;5074427;28;45460;-59
2022/04/07 05:12:03;;;;;;;;;3.25;2.50;;;;;;;;5073935;27;45563;-59
2022/04/07 05:14:28;;;;;;;;;1.50;0.00;;;;;;;;5073260;27;46016;-60
2022/04/07 05:16:53;;;;;;;;;1.00;1.00;;;;;;;;5070474;27;45644;-59
2022/04/07 05:19:18;;;;;;;;;4.00;2.50;;;;;;;;5068171;27;45570;-59
2022/04/07 05:21:49;;;;;;;;;2.75;1.75;;;;;;;;5074513;27;45557;-61
2022/04/07 05:24:16;;;;;;;;;3.00;1.00;;;;;;;;5074834;27;46340;-60
2022/04/07 05:26:42;;;;;;;;;1.00;1.00;;;;;;;;5072988;27;45399;-60
2022/04/07 05:29:07;;;;;;;;;2.50;2.50;;;;;;;;5070876;28;45581;-60
2022/04/07 05:31:32;;;;;;;;;2.00;2.00;;;;;;;;5071019;27;45368;-60
2022/04/07 05:33:58;;;;;;;;;0.00;0.00;;;;;;;;5072811;27;46183;-60
2022/04/07 05:36:23;;;;;;;;;2.25;2.25;;;;;;;;5075009;27;45679;-60
2022/04/07 05:38:48;;;;;;;;;1.50;1.50;;;;;;;;5071769;27;45685;-60
2022/04/07 05:41:13;;;;;;;;;0.00;0.00;;;;;;;;5069436;28;45456;-60
2022/04/07 05:43:39;;;;;;;;;2.00;1.00;;;;;;;;5070750;27;45942;-60
2022/04/07 05:46:04;;;;;;;;;2.00;1.00;;;;;;;;5069850;27;45498;-60
2022/04/07 05:48:29;;;;;;;;;4.00;2.50;;;;;;;;5060019;28;45551;-60
2022/04/07 05:50:54;;;;;;;;;2.50;1.25;;;;;;;;5065972;28;45436;-60
2022/04/07 05:53:19;;;;;;;;;1.00;1.00;;;;;;;;5064099;28;45813;-60
2022/04/07 05:55:45;;;;;;;;;3.00;0.75;;;;;;;;5062373;28;46103;-60
2022/04/07 05:58:10;;;;;;;;;1.00;0.75;;;;;;;;5062079;28;45490;-60
2022/04/07 06:00:37;;;;;;;;;0.00;0.00;;;;;;;;5071102;28;45536;-60
2022/04/07 06:03:02;;;;;;;;;3.00;1.00;;;;;;;;5071336;28;45883;-60
2022/04/07 06:05:28;;;;;;;;;0.00;0.00;;;;;;;;5072176;28;45407;-60
2022/04/07 06:07:56;;;;;;;;;0.00;0.00;;;;;;;;5069809;28;45607;-60
2022/04/07 06:10:22;;;;;;;;;0.50;0.50;;;;;;;;5068877;27;46252;-60
2022/04/07 06:12:47;;;;;;;;;2.00;0.50;;;;;;;;5072946;27;46067;-59
2022/04/07 06:15:13;;;;;;;;;1.00;1.00;;;;;;;;5063566;28;45606;-60
2022/04/07 06:17:39;;;;;;;;;2.50;1.25;;;;;;;;5068000;28;45536;-60
2022/04/07 06:20:06;;;;;;;;;0.00;0.00;;;;;;;;5069811;28;45465;-60
2022/04/07 06:22:32;;;;;;;;;2.00;1.00;;;;;;;;5069351;28;47275;-59
2022/04/07 06:24:57;;;;;;;;;0.00;0.00;;;;;;;;5073025;27;45459;-60
2022/04/07 06:27:22;;;;;;;;;1.00;0.75;;;;;;;;5074589;27;45498;-61
2022/04/07 06:29:47;;;;;;;;;3.00;1.75;;;;;;;;5052262;28;45576;-60
2022/04/07 06:32:13;;;;;;;;;0.25;0.25;;;;;;;;5064188;28;45396;-60
2022/04/07 06:34:39;;;;;;;;;1.00;1.00;;;;;;;;5072458;28;45558;-60
2022/04/07 06:37:04;;;;;;;;;3.00;2.00;;;;;;;;5072783;27;45389;-60
2022/04/07 06:39:29;;;;;;;;;2.75;1.00;;;;;;;;5074034;27;45402;-60
2022/04/07 06:41:55;;;;;;;;;1.00;1.00;;;;;;;;5070694;28;46226;-60
2022/04/07 06:44:20;;;;;;;;;0.00;0.00;;;;;;;;5070414;28;45456;-60
2022/04/07 06:46:45;;;;;;;;;2.00;1.00;;;;;;;;5069874;28;45443;-61
2022/04/07 06:49:11;;;;;;;;;3.75;1.50;;;;;;;;5072346;27;45601;-60
2022/04/07 06:51:36;;;;;;;;;2.50;2.00;;;;;;;;5073609;28;46273;-60
2022/04/07 06:54:01;;;;;;;;;2.50;1.75;;;;;;;;5070209;27;45373;-60
2022/04/07 06:56:26;;;;;;;;;3.75;1.00;;;;;;;;5071682;27;45392;-60
2022/04/07 06:58:52;;;;;;;;;1.00;1.00;;;;;;;;5068923;28;45584;-60
2022/04/07 07:01:18;;;;;;;;;2.00;0.00;;;;;;;;5069298;28;47790;-60
2022/04/07 07:03:43;;;;;;;;;1.00;1.00;;;;;;;;5073488;28;45438;-61
2022/04/07 07:06:08;;;;;;;;;0.00;0.00;;;;;;;;5071726;28;45319;-60
2022/04/07 07:08:34;;;;;;;;;0.00;0.00;;;;;;;;5070960;27;45395;-60
2022/04/07 07:10:59;;;;;;;;;0.00;0.00;;;;;;;;5073786;28;45313;-61
2022/04/07 07:13:24;;;;;;;;;0.00;0.00;;;;;;;;5075639;27;45878;-60
2022/04/07 07:15:49;;;;;;;;;1.00;0.00;;;;;;;;5074311;27;45500;-60
2022/04/07 07:18:15;;;;;;;;;1.00;1.00;;;;;;;;5072307;27;45337;-60
2022/04/07 07:20:40;;;;;;;;;0.00;0.00;;;;;;;;5080177;27;45669;-60
2022/04/07 07:23:07;;;;;;;;;0.00;0.00;;;;;;;;5080522;27;46080;-60
2022/04/07 07:25:32;;;;;;;;;1.00;1.00;;;;;;;;5073121;27;45460;-60
2022/04/07 07:27:58;;;;;;;;;0.00;0.00;;;;;;;;5088398;27;45545;-59
2022/04/07 07:30:25;;;;;;;;;0.25;0.25;;;;;;;;5071862;27;46509;-59
2022/04/07 07:32:51;;;;;;;;;0.00;0.00;;;;;;;;5080890;27;45659;-59
2022/04/07 07:35:20;;;;;;;;;0.00;0.00;;;;;;;;5078171;27;45443;-59
2022/04/07 07:37:52;;;;;;;;;0.00;0.00;;;;;;;;5071987;27;45473;-59
2022/04/07 07:40:20;;;;;;;;;0.00;0.00;;;;;;;;5089968;27;45913;-59
2022/04/07 07:42:47;;;;;;;;;0.00;0.00;;;;;;;;5071411;27;45464;-59
2022/04/07 07:45:12;;;;;;;;;1.00;0.00;;;;;;;;5082073;27;45361;-59
2022/04/07 07:47:37;;;;;;;;;0.00;0.00;;;;;;;;5072561;27;45374;-59
2022/04/07 07:50:03;;;;;;;;;0.00;0.00;;;;;;;;5075822;27;46147;-59
2022/04/07 07:52:28;;;;;;;;;0.50;0.00;;;;;;;;5090267;27;45358;-60
2022/04/07 07:54:54;;;;;;;;;0.00;0.00;;;;;;;;5070908;27;45428;-59
2022/04/07 07:57:19;;;;;;;;;0.00;0.00;;;;;;;;5084799;27;45345;-60
2022/04/07 07:59:44;;;;;;;;;0.00;0.00;;;;;;;;5070611;27;45788;-58
2022/04/07 08:02:10;;;;;;;;;0.00;0.00;;;;;;;;5077890;27;45580;-59
2022/04/07 08:04:35;;;;;;;;;0.00;0.00;;;;;;;;5088196;27;45448;-59
2022/04/07 08:07:00;;;;;;;;;0.00;0.00;;;;;;;;5069604;27;45446;-59
2022/04/07 08:09:25;;;;;;;;;0.00;0.00;;;;;;;;5085900;27;46085;-60
2022/04/07 08:11:50;;;;;;;;;0.00;0.00;;;;;;;;5068487;27;45420;-59
2022/04/07 08:14:16;;;;;;;;;0.00;0.00;;;;;;;;5079729;27;45496;-61
2022/04/07 08:16:41;;;;;;;;;0.00;0.00;;;;;;;;5087141;27;45396;-61
2022/04/07 08:19:06;;;;;;;;;0.00;0.00;;;;;;;;5064800;27;46102;-61
2022/04/07 08:21:32;;;;;;;;;0.00;0.00;;;;;;;;5070506;27;45554;-61
2022/04/07 08:23:57;;;;;;;;;0.00;0.00;;;;;;;;5070083;27;45483;-61
2022/04/07 08:26:22;;;;;;;;;0.00;0.00;;;;;;;;5065654;28;45473;-61
2022/04/07 08:28:48;;;;;;;;;0.00;0.00;;;;;;;;5058204;28;47573;-60
2022/04/07 08:31:13;;;;;;;;;0.00;0.00;;;;;;;;5073794;27;45471;-60
2022/04/07 08:33:38;;;;;;;;;0.00;0.00;;;;;;;;5072975;27;45440;-60
2022/04/07 08:36:03;;;;;;;;;0.75;0.00;;;;;;;;5074258;28;45798;-60
2022/04/07 08:38:29;;;;;;;;;0.00;0.00;;;;;;;;5072903;27;46044;-60
2022/04/07 08:40:54;;;;;;;;;0.00;0.00;;;;;;;;5070848;27;45623;-59
2022/04/07 08:43:20;;;;;;;;;1.00;0.00;;;;;;;;5074134;27;45435;-59
2022/04/07 08:45:45;;;;;;;;;0.75;0.00;;;;;;;;5074069;27;45590;-60
2022/04/07 08:48:11;;;;;;;;;0.00;0.00;;;;;;;;5073642;27;45791;-60
2022/04/07 08:50:40;;;;;;;;;0.50;0.00;;;;;;;;5073849;27;45475;-59
2022/04/07 08:53:06;;;;;;;;;0.00;0.00;;;;;;;;5073930;27;45740;-60
2022/04/07 08:55:31;;;;;;;;;0.00;0.00;;;;;;;;5074036;27;45340;-60
2022/04/07 08:57:56;;;;;;;;;0.00;0.00;;;;;;;;5073869;28;46837;-60
2022/04/07 09:00:22;;;;;;;;;0.00;0.00;;;;;;;;5076152;27;45952;-60
2022/04/07 09:02:47;;;;;;;;;0.00;0.00;;;;;;;;5073887;27;45310;-60
2022/04/07 09:05:12;;;;;;;;;0.00;0.00;;;;;;;;5071037;28;45517;-60
2022/04/07 09:07:38;;;;;;;;;0.00;0.00;;;;;;;;5073665;27;46785;-60
2022/04/07 09:10:04;;;;;;;;;0.00;0.00;;;;;;;;5072283;28;45818;-60
2022/04/07 09:12:29;;;;;;;;;0.00;0.00;;;;;;;;5074752;27;45369;-59
2022/04/07 09:14:58;;;;;;;;;0.00;0.00;;;;;;;;5073672;27;45561;-60
2022/04/07 09:17:24;;;;;;;;;0.00;0.00;;;;;;;;5071952;28;46962;-60
2022/04/07 09:19:49;;;;;;;;;0.00;0.00;;;;;;;;5071801;27;45309;-61
2022/04/07 09:22:15;;;;;;;;;0.00;0.00;;;;;;;;5056809;28;45504;-60
2022/04/07 09:24:41;;;;;;;;;0.00;0.00;;;;;;;;5074005;27;45413;-60
2022/04/07 09:27:09;;;;;;;;;0.00;0.00;;;;;;;;5070241;28;45405;-60
2022/04/07 09:29:42;;;;;;;;;0.00;0.00;;;;;;;;5070068;28;46089;-60
2022/04/07 09:32:17;;;;;;;;;0.00;0.00;;;;;;;;5073400;27;45557;-61
2022/04/07 09:34:43;;;;;;;;;0.00;0.00;;;;;;;;5072436;27;45598;-60
2022/04/07 09:37:09;;;;;;;;;0.00;0.00;;;;;;;;5073253;27;45845;-61
2022/04/07 09:39:36;;;;;;;;;0.00;0.00;;;;;;;;5070977;28;45432;-60
2022/04/07 09:42:17;;;;;;;;;0.00;0.00;;;;;;;;5070478;28;45663;-60
2022/04/07 09:44:42;;;;;;;;;1.00;0.00;;;;;;;;5071778;27;45520;-60
2022/04/07 09:47:11;;;;;;;;;0.75;0.00;;;;;;;;5073084;27;46432;-60
2022/04/07 09:49:36;;;;;;;;;0.00;0.00;;;;;;;;5073152;27;45490;-61
2022/04/07 09:52:01;;;;;;;;;0.00;0.00;;;;;;;;5071983;28;45700;-60
2022/04/07 09:54:28;;;;;;;;;0.00;0.00;;;;;;;;5075365;27;45607;-60
2022/04/07 09:56:53;;;;;;;;;0.00;0.00;;;;;;;;5073241;27;45546;-61
2022/04/07 09:59:20;;;;;;;;;0.00;0.00;;;;;;;;5052710;28;45500;-61
2022/04/07 10:01:48;;;;;;;;;1.00;0.00;;;;;;;;5062234;28;45413;-61
2022/04/07 10:04:14;;;;;;;;;0.00;0.00;;;;;;;;5071811;28;45577;-62
2022/04/07 10:06:39;;;;;;;;;0.00;0.00;;;;;;;;5074320;27;45340;-66
2022/04/07 10:09:07;;;;;;;;;0.00;0.00;;;;;;;;5072885;27;45503;-65
2022/04/07 10:11:32;;;;;;;;;0.00;0.00;;;;;;;;5070060;27;45527;-64
2022/04/07 10:13:58;;;;;;;;;0.00;0.00;;;;;;;;5071111;27;45745;-63
2022/04/07 10:16:24;;;;;;;;;1.00;0.00;;;;;;;;5081893;27;46441;-62
2022/04/07 10:18:54;;;;;;;;;0.50;0.00;;;;;;;;5076343;27;45733;-63
2022/04/07 10:21:35;;;;;;;;;0.50;0.00;;;;;;;;5074683;27;45547;-63
2022/04/07 10:24:11;;;;;;;;;0.00;0.00;;;;;;;;5073509;27;45443;-62
2022/04/07 10:26:39;;;;;;;;;0.75;0.00;;;;;;;;5068959;27;45679;-62
2022/04/07 10:29:05;;;;;;;;;0.75;0.75;;;;;;;;5079911;27;45809;-62
2022/04/07 10:31:32;;;;;;;;;0.00;0.00;;;;;;;;5074290;27;45386;-62
2022/04/07 10:34:07;;;;;;;;;0.00;0.00;;;;;;;;5082266;27;45494;-62
2022/04/07 10:36:38;;;;;;;;;0.00;0.00;;;;;;;;5076751;27;45686;-61
2022/04/07 10:39:09;;;;;;;;;0.00;0.00;;;;;;;;5070580;27;47436;-62
2022/04/07 10:41:37;;;;;;;;;0.00;0.00;;;;;;;;5077303;27;45628;-61
2022/04/07 10:44:08;;;;;;;;;0.00;0.00;;;;;;;;5067033;27;45588;-63
2022/04/07 10:46:33;;;;;;;;;0.00;0.00;;;;;;;;5081753;27;46744;-60
2022/04/07 10:49:09;;;;;;;;;0.00;0.00;;;;;;;;5078162;27;45896;-61
2022/04/07 10:51:45;;;;;;;;;0.00;0.00;;;;;;;;5077158;27;45665;-60
2022/04/07 10:54:11;;;;;;;;;0.00;0.00;;;;;;;;5077331;27;45431;-61
2022/04/07 10:56:39;;;;;;;;;0.00;0.00;;;;;;;;5077619;27;46571;-62
2022/04/07 10:59:10;;;;;;;;;0.33;0.00;;;;;;;;5078011;27;45392;-61
2022/04/07 11:01:38;;;;;;;;;0.00;0.00;;;;;;;;5073370;27;45633;-60
2022/04/07 11:07:03;;;;;;;;;0.00;0.00;;;;;;;;5080876;27;45622;-60
2022/04/07 11:09:40;;;;;;;;;0.00;0.00;;;;;;;;5079827;27;45472;-60
2022/04/07 11:12:08;;;;;;;;;0.00;0.00;;;;;;;;5076297;27;45397;-61
2022/04/07 11:14:34;;;;;;;;;0.00;0.00;;;;;;;;5069603;27;45481;-60
2022/04/07 11:17:01;;;;;;;;;0.00;0.00;;;;;;;;5080839;27;45506;-61
2022/04/07 11:19:38;;;;;;;;;1.00;0.00;;;;;;;;5075613;27;45558;-59
2022/04/07 11:22:08;;;;;;;;;0.00;0.00;;;;;;;;5079571;27;45481;-61
2022/04/07 11:24:39;;;;;;;;;0.50;0.00;;;;;;;;5081154;27;45583;-61
2022/04/07 11:27:43;;;;;;;;;0.00;0.00;;;;;;;;5073838;27;45913;-60
2022/04/07 11:30:09;;;;;;;;;0.00;0.00;;;;;;;;5032126;28;45388;-59
2022/04/07 11:32:35;;;;;;;;;0.50;0.00;;;;;;;;5011865;28;45581;-61
2022/04/07 11:35:13;;;;;;;;;0.00;0.00;;;;;;;;5016748;28;45686;-60
2022/04/07 11:37:40;;;;;;;;;0.00;0.00;;;;;;;;5033469;28;45720;-60
2022/04/07 11:40:06;;;;;;;;;0.00;0.00;;;;;;;;5010648;28;45522;-60
2022/04/07 11:42:32;;;;;;;;;0.00;0.00;;;;;;;;5033525;28;45433;-60
2022/04/07 11:44:58;;;;;;;;;0.00;0.00;;;;;;;;5008074;28;45488;-60
2022/04/07 11:47:25;;;;;;;;;0.00;0.00;;;;;;;;5008381;28;48451;-60
2022/04/07 11:49:50;;;;;;;;;0.00;0.00;;;;;;;;5032003;28;45813;-61
2022/04/07 11:52:16;;;;;;;;;0.00;0.00;;;;;;;;5028488;28;45596;-60
2022/04/07 11:54:41;;;;;;;;;0.00;0.00;;;;;;;;5030510;28;45624;-61
2022/04/07 11:57:08;;;;;;;;;0.00;0.00;;;;;;;;5028049;28;45628;-61
2022/04/07 11:59:34;;;;;;;;;0.00;0.00;;;;;;;;5033230;28;45672;-61
2022/04/07 12:02:00;;;;;;;;;0.25;0.25;;;;;;;;5029986;28;46065;-61
2022/04/07 12:04:29;;;;;;;;;2.00;1.00;;;;;;;;5054776;27;45467;-61
2022/04/07 12:06:55;;;;;;;;;2.25;0.75;;;;;;;;5079073;27;46143;-61
2022/04/07 12:09:20;;;;;;;;;1.00;1.00;;;;;;;;5076714;27;45387;-62
2022/04/07 12:11:46;;;;;;;;;2.00;1.00;;;;;;;;5078481;27;45514;-60
2022/04/07 12:14:15;;;;;;;;;0.75;0.75;;;;;;;;5069359;27;45452;-61
2022/04/07 12:16:46;;;;;;;;;1.00;0.00;;;;;;;;5070407;27;45774;-62
2022/04/07 12:19:12;;;;;;;;;2.00;1.00;;;;;;;;5057352;28;45319;-60
2022/04/07 12:21:53;;;;;;;;;1.00;0.00;;;;;;;;5072723;27;45375;-59
2022/04/07 12:24:19;;;;;;;;;1.00;1.00;;;;;;;;5070641;28;45375;-60
2022/04/07 12:26:51;;;;;;;;;0.00;0.00;;;;;;;;5067362;27;47887;-60
2022/04/07 12:29:18;;;;;;;;;1.00;0.00;;;;;;;;5067925;28;45575;-60
2022/04/07 12:31:43;;;;;;;;;0.25;0.25;;;;;;;;5069915;27;45477;-61
2022/04/07 12:34:12;;;;;;;;;0.00;0.00;;;;;;;;5073563;27;45563;-60
2022/04/07 12:36:38;;;;;;;;;0.50;0.50;;;;;;;;5072136;28;45459;-61
2022/04/07 12:39:10;;;;;;;;;0.00;0.00;;;;;;;;5068234;28;45586;-60
2022/04/07 12:41:39;;;;;;;;;0.50;0.50;;;;;;;;5067265;27;45623;-60
2022/04/07 12:44:04;;;;;;;;;1.25;0.25;;;;;;;;5067539;28;45607;-60
2022/04/07 12:46:43;;;;;;;;;0.75;0.75;;;;;;;;5071106;28;45802;-61
2022/04/07 12:49:08;;;;;;;;;3.75;1.00;;;;;;;;5058202;28;45408;-61
2022/04/07 12:51:37;;;;;;;;;0.00;0.00;;;;;;;;5076558;27;45345;-61
2022/04/07 12:54:07;;;;;;;;;2.00;1.00;;;;;;;;5074415;27;45465;-61
2022/04/07 12:56:32;;;;;;;;;0.75;0.75;;;;;;;;5075262;27;45717;-60
2022/04/07 12:59:03;;;;;;;;;2.25;1.00;;;;;;;;5074057;27;45474;-60
2022/04/07 13:01:29;;;;;;;;;2.00;1.00;;;;;;;;5074063;27;45420;-61
2022/04/07 13:03:56;;;;;;;;;1.75;1.00;;;;;;;;5073320;27;47435;-60
2022/04/07 13:06:21;;;;;;;;;1.00;1.00;;;;;;;;5072443;28;47742;-60
2022/04/07 13:08:47;;;;;;;;;1.00;1.00;;;;;;;;5072195;27;45396;-60
2022/04/07 13:11:13;;;;;;;;;4.00;1.50;;;;;;;;5073762;27;45550;-61
2022/04/07 13:13:38;;;;;;;;;3.00;2.00;;;;;;;;5072499;27;45491;-61
2022/04/07 13:16:03;;;;;;;;;1.50;1.00;;;;;;;;5073700;27;45969;-62
2022/04/07 13:18:29;;;;;;;;;0.50;0.50;;;;;;;;5075741;27;45289;-61
2022/04/07 13:20:54;;;;;;;;;0.75;0.75;;;;;;;;5072232;27;45482;-61
2022/04/07 13:23:19;;;;;;;;;1.75;1.50;;;;;;;;5073613;28;49630;-61
2022/04/07 13:25:44;;;;;;;;;2.00;1.00;;;;;;;;5073406;27;46031;-60
2022/04/07 13:28:09;;;;;;;;;1.75;1.75;;;;;;;;5071401;27;45598;-60
2022/04/07 13:30:35;;;;;;;;;1.25;1.25;;;;;;;;5075463;27;45899;-60
2022/04/07 13:33:00;;;;;;;;;1.00;1.00;;;;;;;;5073469;27;45299;-61
2022/04/07 13:35:26;;;;;;;;;1.00;1.00;;;;;;;;5073236;27;45496;-61
2022/04/07 13:37:51;;;;;;;;;0.00;0.00;;;;;;;;5070478;27;45438;-61
2022/04/07 13:40:16;;;;;;;;;1.50;0.00;;;;;;;;5069029;27;45544;-60
2022/04/07 13:42:42;;;;;;;;;3.50;1.00;;;;;;;;5082783;27;45423;-62
2022/04/07 13:45:09;;;;;;;;;0.00;0.00;;;;;;;;5073934;27;46543;-62
2022/04/07 13:47:34;;;;;;;;;2.25;1.25;;;;;;;;5072299;27;45423;-61
2022/04/07 13:49:59;;;;;;;;;0.50;0.50;;;;;;;;5082256;27;45504;-61
2022/04/07 13:52:25;;;;;;;;;0.75;0.00;;;;;;;;5074618;27;45358;-61
2022/04/07 13:54:50;;;;;;;;;3.25;1.75;;;;;;;;5080700;27;45492;-61
2022/04/07 13:57:15;;;;;;;;;1.75;1.25;;;;;;;;5076183;27;45533;-61
2022/04/07 13:59:41;;;;;;;;;2.50;1.00;;;;;;;;5072054;27;45550;-59
2022/04/07 14:02:06;;;;;;;;;3.00;1.00;;;;;;;;5082978;27;45764;-60
2022/04/07 14:04:33;;;;;;;;;1.00;1.00;;;;;;;;5073938;27;46100;-60
2022/04/07 14:07:00;;;;;;;;;1.50;0.00;;;;;;;;5078180;27;45407;-60
2022/04/07 14:09:26;;;;;;;;;1.00;1.00;;;;;;;;5077810;27;45565;-61
2022/04/07 14:11:51;;;;;;;;;0.50;0.50;;;;;;;;5072981;27;45491;-60
2022/04/07 14:14:16;;;;;;;;;1.25;1.00;;;;;;;;5081142;27;46531;-59
2022/04/07 14:16:42;;;;;;;;;3.25;1.00;;;;;;;;5068949;27;45388;-61
2022/04/07 14:19:07;;;;;;;;;3.75;2.25;;;;;;;;5082163;27;45315;-61
2022/04/07 14:21:33;;;;;;;;;1.00;1.00;;;;;;;;5060346;27;45473;-60
2022/04/07 14:23:58;;;;;;;;;1.00;1.00;;;;;;;;5071391;27;47428;-60
2022/04/07 14:26:24;;;;;;;;;1.00;1.00;;;;;;;;5080347;27;45376;-61
2022/04/07 14:28:49;;;;;;;;;0.50;0.50;;;;;;;;5072954;27;45671;-61
2022/04/07 14:31:16;;;;;;;;;6.25;2.25;;;;;;;;5078804;27;45542;-61
2022/04/07 14:33:44;;;;;;;;;0.00;0.00;;;;;;;;5076782;27;48432;-61
2022/04/07 14:36:10;;;;;;;;;1.00;1.00;;;;;;;;5059425;28;45440;-61
2022/04/07 14:38:35;;;;;;;;;0.75;0.75;;;;;;;;5066234;27;45481;-60
2022/04/07 14:41:00;;;;;;;;;1.75;1.00;;;;;;;;5071551;27;45523;-61